RYR8UB EPMO-LGKR
Flight info
| Callsign | RYR8UB |
|---|---|
| Flight time | 1h 54m |
| Altitude | 34000 |
| Route | EVINA DCT KUKAM DCT MEBAN/N0462F350 DCT DODAR DCT EBORO DCT PARAK/N0466F360 DCT POD DCT RODON/N0456F350 DCT LIMJA N732 PITAS |
| Aircraft | B738/M-SDE2E3FGHIRWXY/LB1 |
Departure
| Time | 2026-04-22 12:46 |
|---|---|
| Airport | Warsaw Modlin Airport (EPMO) |
Arrival
| Time | 2026-04-22 14:40 |
|---|---|
| Airport | Corfu Ioannis Kapodistrias International Airport (LGKR) |
| Time | Latitude | Longitude | Altitude | Speed | Heading |
|---|---|---|---|---|---|
| 2026-04-22 12:35 | 52.44800 | 20.65824 | 332 ft | 0 kts | 39° |
| 2026-04-22 12:41 | 52.44812 | 20.65842 | 335 ft | 5 kts | 42° |
| 2026-04-22 12:42 | 52.44847 | 20.65907 | 334 ft | 9 kts | 64° |
| 2026-04-22 12:42 | 52.44859 | 20.66006 | 337 ft | 9 kts | 82° |
| 2026-04-22 12:42 | 52.44868 | 20.66107 | 334 ft | 9 kts | 81° |
| 2026-04-22 12:42 | 52.44878 | 20.66209 | 337 ft | 10 kts | 81° |
| 2026-04-22 12:43 | 52.44890 | 20.66330 | 337 ft | 12 kts | 81° |
| 2026-04-22 12:43 | 52.44904 | 20.66473 | 334 ft | 14 kts | 81° |
| 2026-04-22 12:43 | 52.44919 | 20.66642 | 337 ft | 16 kts | 82° |
| 2026-04-22 12:43 | 52.44936 | 20.66831 | 337 ft | 18 kts | 81° |
| 2026-04-22 12:44 | 52.44964 | 20.67036 | 335 ft | 19 kts | 52° |
| 2026-04-22 12:44 | 52.45087 | 20.67060 | 335 ft | 18 kts | 349° |
| 2026-04-22 12:44 | 52.45211 | 20.67019 | 336 ft | 18 kts | 345° |
| 2026-04-22 12:44 | 52.45281 | 20.66888 | 335 ft | 17 kts | 262° |
| 2026-04-22 12:45 | 52.45263 | 20.66680 | 332 ft | 22 kts | 261° |
| 2026-04-22 12:45 | 52.45204 | 20.66059 | 337 ft | 88 kts | 261° |
| 2026-04-22 12:45 | 52.45082 | 20.64726 | 340 ft | 146 kts | 266° |
| 2026-04-22 12:45 | 52.44924 | 20.62945 | 820 ft | 155 kts | 263° |
| 2026-04-22 12:46 | 52.44763 | 20.61272 | 1656 ft | 155 kts | 266° |
| 2026-04-22 12:46 | 52.44538 | 20.59409 | 2027 ft | 181 kts | 265° |
| 2026-04-22 12:46 | 52.44298 | 20.57279 | 2602 ft | 191 kts | 265° |
| 2026-04-22 12:46 | 52.44293 | 20.55094 | 3164 ft | 200 kts | 291° |
| 2026-04-22 12:47 | 52.45111 | 20.53162 | 3523 ft | 219 kts | 324° |
| 2026-04-22 12:47 | 52.46587 | 20.52289 | 3920 ft | 241 kts | 354° |
| 2026-04-22 12:47 | 52.48281 | 20.52160 | 4802 ft | 244 kts | 355° |
| 2026-04-22 12:47 | 52.50000 | 20.52028 | 5665 ft | 248 kts | 356° |
| 2026-04-22 12:48 | 52.51722 | 20.51886 | 6605 ft | 247 kts | 357° |
| 2026-04-22 12:48 | 52.53444 | 20.51740 | 7404 ft | 250 kts | 356° |
| 2026-04-22 12:48 | 52.55138 | 20.51010 | 8097 ft | 258 kts | 330° |
| 2026-04-22 12:48 | 52.56437 | 20.48984 | 8858 ft | 266 kts | 309° |
| 2026-04-22 12:49 | 52.57248 | 20.46184 | 9603 ft | 278 kts | 288° |
| 2026-04-22 12:49 | 52.57363 | 20.42957 | 10284 ft | 292 kts | 264° |
| 2026-04-22 12:49 | 52.56644 | 20.39703 | 10580 ft | 320 kts | 240° |
| 2026-04-22 12:49 | 52.55085 | 20.36893 | 10779 ft | 347 kts | 218° |
| 2026-04-22 12:50 | 52.52871 | 20.34989 | 10950 ft | 372 kts | 198° |
| 2026-04-22 12:50 | 52.50251 | 20.34342 | 11200 ft | 389 kts | 181° |
| 2026-04-22 12:50 | 52.47559 | 20.34415 | 11735 ft | 395 kts | 176° |
| 2026-04-22 12:50 | 52.44799 | 20.34681 | 12487 ft | 397 kts | 175° |
| 2026-04-22 12:51 | 52.42029 | 20.34946 | 13171 ft | 400 kts | 176° |
| 2026-04-22 12:51 | 52.39224 | 20.35151 | 13813 ft | 405 kts | 176° |
| 2026-04-22 12:51 | 52.36394 | 20.35290 | 14403 ft | 409 kts | 177° |
| 2026-04-22 12:51 | 52.33525 | 20.35375 | 15003 ft | 413 kts | 178° |
| 2026-04-22 12:52 | 52.30636 | 20.35424 | 15594 ft | 416 kts | 178° |
| 2026-04-22 12:52 | 52.27725 | 20.35453 | 16184 ft | 419 kts | 178° |
| 2026-04-22 12:52 | 52.24796 | 20.35474 | 16756 ft | 423 kts | 178° |
| 2026-04-22 12:52 | 52.21877 | 20.35490 | 17303 ft | 427 kts | 178° |
| 2026-04-22 12:53 | 52.18892 | 20.35506 | 17918 ft | 429 kts | 177° |
| 2026-04-22 12:53 | 52.15889 | 20.35434 | 18479 ft | 433 kts | 182° |
| 2026-04-22 12:53 | 52.12876 | 20.34893 | 18951 ft | 438 kts | 185° |
| 2026-04-22 12:53 | 52.09845 | 20.34187 | 19435 ft | 441 kts | 186° |
| 2026-04-22 12:54 | 52.06797 | 20.33435 | 19916 ft | 444 kts | 186° |
| 2026-04-22 12:54 | 52.03771 | 20.32695 | 20381 ft | 447 kts | 186° |
| 2026-04-22 12:54 | 52.00683 | 20.31961 | 20840 ft | 450 kts | 185° |
| 2026-04-22 12:54 | 51.97568 | 20.31242 | 21306 ft | 452 kts | 185° |
| 2026-04-22 12:55 | 51.94441 | 20.30539 | 21780 ft | 455 kts | 184° |
| 2026-04-22 12:55 | 51.91293 | 20.29841 | 22225 ft | 458 kts | 184° |
| 2026-04-22 12:55 | 51.88117 | 20.29144 | 22640 ft | 461 kts | 184° |
| 2026-04-22 12:55 | 51.84960 | 20.28454 | 23060 ft | 464 kts | 184° |
| 2026-04-22 12:56 | 51.81755 | 20.27754 | 23478 ft | 466 kts | 184° |
| 2026-04-22 12:56 | 51.78528 | 20.27050 | 23859 ft | 469 kts | 184° |
| 2026-04-22 12:56 | 51.75290 | 20.26344 | 24195 ft | 471 kts | 184° |
| 2026-04-22 12:56 | 51.72027 | 20.25633 | 24543 ft | 473 kts | 183° |
| 2026-04-22 12:57 | 51.68752 | 20.24920 | 24903 ft | 475 kts | 183° |
| 2026-04-22 12:57 | 51.65463 | 20.24205 | 25228 ft | 478 kts | 183° |
| 2026-04-22 12:57 | 51.62149 | 20.23485 | 25549 ft | 480 kts | 183° |
| 2026-04-22 12:57 | 51.58828 | 20.22765 | 25864 ft | 482 kts | 183° |
| 2026-04-22 12:58 | 51.55540 | 20.22053 | 26167 ft | 484 kts | 182° |
| 2026-04-22 12:58 | 51.52192 | 20.21330 | 26473 ft | 486 kts | 182° |
| 2026-04-22 12:58 | 51.48832 | 20.20605 | 26783 ft | 488 kts | 182° |
| 2026-04-22 12:58 | 51.45453 | 20.19876 | 27074 ft | 490 kts | 182° |
| 2026-04-22 12:59 | 51.42066 | 20.19148 | 27345 ft | 492 kts | 182° |
| 2026-04-22 12:59 | 51.38698 | 20.18424 | 27620 ft | 494 kts | 182° |
| 2026-04-22 12:59 | 51.35278 | 20.17690 | 27970 ft | 493 kts | 182° |
| 2026-04-22 12:59 | 51.31876 | 20.16958 | 28433 ft | 491 kts | 181° |
| 2026-04-22 13:00 | 51.28492 | 20.16231 | 28892 ft | 489 kts | 181° |
| 2026-04-22 13:00 | 51.25116 | 20.15509 | 29318 ft | 489 kts | 181° |
| 2026-04-22 13:00 | 51.21745 | 20.14790 | 29678 ft | 488 kts | 181° |
| 2026-04-22 13:00 | 51.18371 | 20.14073 | 30063 ft | 488 kts | 181° |
| 2026-04-22 13:01 | 51.15098 | 20.13376 | 30424 ft | 487 kts | 181° |
| 2026-04-22 13:01 | 51.11744 | 20.12663 | 30751 ft | 485 kts | 181° |
| 2026-04-22 13:01 | 51.08388 | 20.11951 | 31041 ft | 485 kts | 181° |
| 2026-04-22 13:01 | 51.05027 | 20.11241 | 31315 ft | 486 kts | 181° |
| 2026-04-22 13:02 | 51.01682 | 20.10534 | 31612 ft | 485 kts | 181° |
| 2026-04-22 13:02 | 50.98366 | 20.09834 | 31904 ft | 485 kts | 182° |
| 2026-04-22 13:02 | 50.95058 | 20.09138 | 32160 ft | 485 kts | 182° |
| 2026-04-22 13:02 | 50.91692 | 20.08429 | 32453 ft | 485 kts | 182° |
| 2026-04-22 13:03 | 50.88338 | 20.07723 | 32762 ft | 484 kts | 182° |
| 2026-04-22 13:03 | 50.85045 | 20.07031 | 33055 ft | 483 kts | 182° |
| 2026-04-22 13:03 | 50.81713 | 20.06333 | 33338 ft | 483 kts | 183° |
| 2026-04-22 13:03 | 50.78378 | 20.05520 | 33640 ft | 484 kts | 186° |
| 2026-04-22 13:04 | 50.75069 | 20.04601 | 33927 ft | 483 kts | 183° |
| 2026-04-22 13:04 | 50.71723 | 20.04290 | 34105 ft | 480 kts | 176° |
| 2026-04-22 13:04 | 50.68379 | 20.04267 | 34137 ft | 482 kts | 175° |
| 2026-04-22 13:05 | 50.61657 | 20.04342 | 34141 ft | 482 kts | 175° |
| 2026-04-22 13:05 | 50.54980 | 20.04348 | 34137 ft | 477 kts | 176° |
| 2026-04-22 13:06 | 50.48342 | 20.04280 | 34139 ft | 477 kts | 176° |
| 2026-04-22 13:06 | 50.41712 | 20.04182 | 34145 ft | 476 kts | 176° |
| 2026-04-22 13:07 | 50.35087 | 20.04082 | 34137 ft | 476 kts | 176° |
| 2026-04-22 13:07 | 50.28490 | 20.03986 | 34155 ft | 477 kts | 177° |
| 2026-04-22 13:08 | 50.21848 | 20.03892 | 34154 ft | 478 kts | 177° |
| 2026-04-22 13:08 | 50.15182 | 20.03797 | 34148 ft | 479 kts | 177° |
| 2026-04-22 13:09 | 50.08503 | 20.03703 | 34151 ft | 480 kts | 177° |
| 2026-04-22 13:09 | 50.01816 | 20.03608 | 34160 ft | 481 kts | 177° |
| 2026-04-22 13:10 | 49.95104 | 20.03514 | 34146 ft | 482 kts | 177° |
| 2026-04-22 13:10 | 49.88391 | 20.03419 | 34124 ft | 483 kts | 177° |
| 2026-04-22 13:11 | 49.81663 | 20.03325 | 34138 ft | 483 kts | 178° |
| 2026-04-22 13:11 | 49.74977 | 20.03292 | 34126 ft | 483 kts | 176° |
| 2026-04-22 13:12 | 49.68248 | 20.03433 | 34126 ft | 483 kts | 176° |
| 2026-04-22 13:12 | 49.61513 | 20.03595 | 34122 ft | 483 kts | 176° |
| 2026-04-22 13:13 | 49.54821 | 20.03732 | 34130 ft | 482 kts | 177° |
| 2026-04-22 13:13 | 49.48096 | 20.03854 | 34123 ft | 482 kts | 177° |
| 2026-04-22 13:14 | 49.41442 | 20.03971 | 34131 ft | 481 kts | 177° |
| 2026-04-22 13:14 | 49.34733 | 20.04089 | 34110 ft | 480 kts | 177° |
| 2026-04-22 13:15 | 49.28049 | 20.04206 | 34121 ft | 480 kts | 177° |
| 2026-04-22 13:15 | 49.21366 | 20.04325 | 34104 ft | 479 kts | 177° |
| 2026-04-22 13:16 | 49.14736 | 20.04443 | 34098 ft | 479 kts | 177° |
| 2026-04-22 13:16 | 49.08062 | 20.04560 | 34097 ft | 478 kts | 177° |
| 2026-04-22 13:17 | 49.01453 | 20.04676 | 34108 ft | 479 kts | 177° |
| 2026-04-22 13:17 | 48.94777 | 20.04790 | 34102 ft | 480 kts | 178° |
| 2026-04-22 13:18 | 48.88091 | 20.04491 | 34102 ft | 481 kts | 181° |
| 2026-04-22 13:18 | 48.81381 | 20.03910 | 34095 ft | 482 kts | 181° |
| 2026-04-22 13:19 | 48.74714 | 20.03351 | 34083 ft | 483 kts | 181° |
| 2026-04-22 13:19 | 48.67988 | 20.02846 | 34084 ft | 483 kts | 181° |
| 2026-04-22 13:20 | 48.61258 | 20.02368 | 34081 ft | 483 kts | 181° |
| 2026-04-22 13:20 | 48.54567 | 20.01898 | 34080 ft | 484 kts | 181° |
| 2026-04-22 13:21 | 48.47834 | 20.01424 | 34071 ft | 484 kts | 181° |
| 2026-04-22 13:21 | 48.41089 | 20.00949 | 34077 ft | 484 kts | 181° |
| 2026-04-22 13:22 | 48.34391 | 20.00478 | 34078 ft | 483 kts | 181° |
| 2026-04-22 13:22 | 48.27681 | 20.00008 | 34078 ft | 482 kts | 181° |
| 2026-04-22 13:23 | 48.21008 | 19.99542 | 34085 ft | 481 kts | 181° |
| 2026-04-22 13:23 | 48.14307 | 19.99075 | 34082 ft | 480 kts | 182° |
| 2026-04-22 13:24 | 48.07660 | 19.98613 | 34095 ft | 479 kts | 182° |
| 2026-04-22 13:24 | 48.01000 | 19.98151 | 34086 ft | 478 kts | 182° |
| 2026-04-22 13:25 | 47.94386 | 19.97693 | 34094 ft | 478 kts | 182° |
| 2026-04-22 13:25 | 47.87734 | 19.97234 | 34092 ft | 477 kts | 182° |
| 2026-04-22 13:26 | 47.81087 | 19.96777 | 34091 ft | 477 kts | 182° |
| 2026-04-22 13:26 | 47.74489 | 19.96324 | 34097 ft | 477 kts | 182° |
| 2026-04-22 13:27 | 47.67853 | 19.95870 | 34102 ft | 477 kts | 182° |
| 2026-04-22 13:27 | 47.61232 | 19.95418 | 34106 ft | 478 kts | 182° |
| 2026-04-22 13:28 | 47.55696 | 19.95040 | 34108 ft | 479 kts | 182° |
| 2026-04-22 13:28 | 47.47946 | 19.94514 | 34115 ft | 479 kts | 182° |
| 2026-04-22 13:29 | 47.42379 | 19.94136 | 34119 ft | 480 kts | 182° |
| 2026-04-22 13:29 | 47.35691 | 19.93684 | 34115 ft | 480 kts | 182° |
| 2026-04-22 13:30 | 47.29048 | 19.93236 | 34121 ft | 480 kts | 182° |
| 2026-04-22 13:30 | 47.22368 | 19.92786 | 34120 ft | 479 kts | 182° |
| 2026-04-22 13:31 | 47.15707 | 19.92339 | 34128 ft | 478 kts | 182° |
| 2026-04-22 13:31 | 47.09101 | 19.91897 | 34120 ft | 477 kts | 182° |
| 2026-04-22 13:32 | 47.02461 | 19.91454 | 34132 ft | 476 kts | 182° |
| 2026-04-22 13:32 | 46.95869 | 19.91014 | 34126 ft | 475 kts | 182° |
| 2026-04-22 13:33 | 46.89260 | 19.90575 | 34130 ft | 475 kts | 183° |
| 2026-04-22 13:33 | 46.82650 | 19.90137 | 34133 ft | 475 kts | 183° |
| 2026-04-22 13:34 | 46.76044 | 19.89700 | 34135 ft | 474 kts | 183° |
| 2026-04-22 13:34 | 46.69435 | 19.89264 | 34123 ft | 475 kts | 183° |
| 2026-04-22 13:35 | 46.62835 | 19.88830 | 34129 ft | 474 kts | 183° |
| 2026-04-22 13:35 | 46.56279 | 19.88399 | 34119 ft | 475 kts | 183° |
| 2026-04-22 13:36 | 46.49667 | 19.87966 | 34130 ft | 475 kts | 183° |
| 2026-04-22 13:36 | 46.43043 | 19.87533 | 34128 ft | 475 kts | 183° |
| 2026-04-22 13:37 | 46.36463 | 19.87104 | 34130 ft | 476 kts | 183° |
| 2026-04-22 13:37 | 46.29831 | 19.86673 | 34123 ft | 477 kts | 183° |
| 2026-04-22 13:38 | 46.23200 | 19.86243 | 34124 ft | 477 kts | 184° |
| 2026-04-22 13:38 | 46.13241 | 19.85599 | 34127 ft | 477 kts | 184° |
| 2026-04-22 13:39 | 46.06633 | 19.85173 | 34131 ft | 477 kts | 184° |
| 2026-04-22 13:39 | 45.99986 | 19.84746 | 34126 ft | 477 kts | 184° |
| 2026-04-22 13:40 | 45.93342 | 19.84320 | 34131 ft | 478 kts | 184° |
| 2026-04-22 13:40 | 45.86732 | 19.83897 | 34132 ft | 478 kts | 184° |
| 2026-04-22 13:41 | 45.80043 | 19.83469 | 34124 ft | 478 kts | 184° |
| 2026-04-22 13:41 | 45.73429 | 19.83048 | 34133 ft | 478 kts | 184° |
| 2026-04-22 13:42 | 45.66767 | 19.82625 | 34132 ft | 478 kts | 184° |
| 2026-04-22 13:42 | 45.60108 | 19.82203 | 34123 ft | 479 kts | 184° |
| 2026-04-22 13:43 | 45.53487 | 19.81784 | 34131 ft | 479 kts | 184° |
| 2026-04-22 13:43 | 45.46801 | 19.81362 | 34137 ft | 479 kts | 185° |
| 2026-04-22 13:44 | 45.40132 | 19.80942 | 34125 ft | 479 kts | 185° |
| 2026-04-22 13:44 | 45.33511 | 19.80527 | 34132 ft | 479 kts | 185° |
| 2026-04-22 13:45 | 45.26841 | 19.80109 | 34129 ft | 478 kts | 185° |
| 2026-04-22 13:45 | 45.20184 | 19.79693 | 34116 ft | 478 kts | 185° |
| 2026-04-22 13:46 | 45.13569 | 19.79281 | 34124 ft | 478 kts | 185° |
| 2026-04-22 13:46 | 45.06919 | 19.78867 | 34124 ft | 478 kts | 185° |
| 2026-04-22 13:47 | 45.00271 | 19.78454 | 34132 ft | 478 kts | 185° |
| 2026-04-22 13:47 | 44.93615 | 19.78042 | 34127 ft | 478 kts | 185° |
| 2026-04-22 13:48 | 44.87006 | 19.77633 | 34131 ft | 478 kts | 185° |
| 2026-04-22 13:48 | 44.80351 | 19.77223 | 34118 ft | 478 kts | 186° |
| 2026-04-22 13:49 | 44.73696 | 19.76814 | 34130 ft | 478 kts | 186° |
| 2026-04-22 13:49 | 44.67071 | 19.76408 | 34128 ft | 478 kts | 186° |
| 2026-04-22 13:50 | 44.60417 | 19.76001 | 34120 ft | 478 kts | 186° |
| 2026-04-22 13:50 | 44.53811 | 19.75597 | 34130 ft | 478 kts | 186° |
| 2026-04-22 13:51 | 44.47156 | 19.75191 | 34135 ft | 478 kts | 186° |
| 2026-04-22 13:51 | 44.40488 | 19.74786 | 34116 ft | 478 kts | 186° |
| 2026-04-22 13:52 | 44.33863 | 19.74384 | 34132 ft | 479 kts | 186° |
| 2026-04-22 13:52 | 44.27194 | 19.73980 | 34151 ft | 479 kts | 186° |
| 2026-04-22 13:53 | 44.20521 | 19.73578 | 34129 ft | 480 kts | 187° |
| 2026-04-22 13:53 | 44.13872 | 19.73177 | 34134 ft | 480 kts | 187° |
| 2026-04-22 13:54 | 44.07191 | 19.72775 | 34145 ft | 479 kts | 187° |
| 2026-04-22 13:54 | 44.00550 | 19.72377 | 34120 ft | 479 kts | 187° |
| 2026-04-22 13:55 | 43.93874 | 19.71978 | 34135 ft | 479 kts | 187° |
| 2026-04-22 13:55 | 43.87253 | 19.71583 | 34135 ft | 479 kts | 187° |
| 2026-04-22 13:56 | 43.80596 | 19.71185 | 34134 ft | 478 kts | 188° |
| 2026-04-22 13:56 | 43.73923 | 19.70789 | 34142 ft | 478 kts | 188° |
| 2026-04-22 13:57 | 43.67318 | 19.70397 | 34140 ft | 479 kts | 188° |
| 2026-04-22 13:57 | 43.60641 | 19.70002 | 34140 ft | 478 kts | 188° |
| 2026-04-22 13:58 | 43.53972 | 19.69609 | 34126 ft | 479 kts | 188° |
| 2026-04-22 13:58 | 43.47354 | 19.69219 | 34127 ft | 478 kts | 188° |
| 2026-04-22 13:59 | 43.40670 | 19.68826 | 34114 ft | 478 kts | 189° |
| 2026-04-22 13:59 | 43.34061 | 19.68438 | 34114 ft | 478 kts | 189° |
| 2026-04-22 14:00 | 43.27409 | 19.68048 | 34108 ft | 478 kts | 189° |
| 2026-04-22 14:00 | 43.20765 | 19.67661 | 34119 ft | 477 kts | 189° |
| 2026-04-22 14:01 | 43.14127 | 19.67272 | 34122 ft | 478 kts | 189° |
| 2026-04-22 14:01 | 43.07520 | 19.66889 | 34110 ft | 477 kts | 189° |
| 2026-04-22 14:02 | 43.00877 | 19.66502 | 34101 ft | 478 kts | 189° |
| 2026-04-22 14:02 | 42.94241 | 19.66118 | 34073 ft | 478 kts | 189° |
| 2026-04-22 14:03 | 42.87597 | 19.65736 | 34045 ft | 477 kts | 189° |
| 2026-04-22 14:03 | 42.80963 | 19.65355 | 34051 ft | 476 kts | 189° |
| 2026-04-22 14:04 | 42.74336 | 19.64974 | 34066 ft | 476 kts | 189° |
| 2026-04-22 14:04 | 42.67698 | 19.64591 | 34024 ft | 477 kts | 190° |
| 2026-04-22 14:05 | 42.61112 | 19.64215 | 34028 ft | 476 kts | 190° |
| 2026-04-22 14:06 | 42.51213 | 19.63651 | 34018 ft | 471 kts | 190° |
| 2026-04-22 14:06 | 42.44685 | 19.63288 | 34031 ft | 472 kts | 191° |
| 2026-04-22 14:07 | 42.38103 | 19.62902 | 33985 ft | 473 kts | 191° |
| 2026-04-22 14:07 | 42.31516 | 19.62522 | 33991 ft | 474 kts | 191° |
| 2026-04-22 14:08 | 42.24894 | 19.62145 | 34008 ft | 477 kts | 191° |
| 2026-04-22 14:08 | 42.18303 | 19.61859 | 33986 ft | 476 kts | 191° |
| 2026-04-22 14:09 | 42.11670 | 19.61453 | 33954 ft | 478 kts | 192° |
| 2026-04-22 14:09 | 42.05024 | 19.61042 | 33973 ft | 478 kts | 192° |
| 2026-04-22 14:10 | 41.98390 | 19.60655 | 33996 ft | 477 kts | 192° |
| 2026-04-22 14:10 | 41.91751 | 19.60284 | 33926 ft | 477 kts | 192° |
| 2026-04-22 14:11 | 41.85111 | 19.59918 | 33968 ft | 477 kts | 192° |
| 2026-04-22 14:11 | 41.78474 | 19.59547 | 33985 ft | 478 kts | 192° |
| 2026-04-22 14:12 | 41.71817 | 19.59175 | 33937 ft | 479 kts | 192° |
| 2026-04-22 14:12 | 41.65150 | 19.58805 | 33967 ft | 480 kts | 192° |
| 2026-04-22 14:13 | 41.58512 | 19.58436 | 33982 ft | 481 kts | 192° |
| 2026-04-22 14:13 | 41.51806 | 19.58064 | 33927 ft | 483 kts | 193° |
| 2026-04-22 14:14 | 41.45105 | 19.57702 | 33965 ft | 481 kts | 193° |
| 2026-04-22 14:14 | 41.39547 | 19.57395 | 33970 ft | 480 kts | 193° |
| 2026-04-22 14:15 | 41.32841 | 19.57024 | 33975 ft | 479 kts | 193° |
| 2026-04-22 14:15 | 41.26245 | 19.56663 | 33967 ft | 476 kts | 193° |
| 2026-04-22 14:16 | 41.19613 | 19.56297 | 33965 ft | 477 kts | 193° |
| 2026-04-22 14:16 | 41.16278 | 19.56111 | 33472 ft | 482 kts | 193° |
| 2026-04-22 14:16 | 41.12932 | 19.55925 | 32880 ft | 480 kts | 193° |
| 2026-04-22 14:16 | 41.09587 | 19.55745 | 32223 ft | 479 kts | 193° |
| 2026-04-22 14:17 | 41.06254 | 19.55566 | 31544 ft | 479 kts | 193° |
| 2026-04-22 14:17 | 41.02918 | 19.55385 | 30857 ft | 479 kts | 193° |
| 2026-04-22 14:17 | 40.99579 | 19.55203 | 30153 ft | 479 kts | 193° |
| 2026-04-22 14:17 | 40.96291 | 19.55024 | 29331 ft | 480 kts | 193° |
| 2026-04-22 14:18 | 40.92952 | 19.54843 | 28514 ft | 479 kts | 193° |
| 2026-04-22 14:18 | 40.89616 | 19.54663 | 27763 ft | 477 kts | 192° |
| 2026-04-22 14:18 | 40.86334 | 19.54490 | 27244 ft | 470 kts | 193° |
| 2026-04-22 14:18 | 40.83073 | 19.54317 | 26684 ft | 465 kts | 193° |
| 2026-04-22 14:19 | 40.79855 | 19.54145 | 26126 ft | 460 kts | 193° |
| 2026-04-22 14:19 | 40.76666 | 19.53971 | 25571 ft | 456 kts | 193° |
| 2026-04-22 14:19 | 40.73544 | 19.53801 | 25032 ft | 452 kts | 193° |
| 2026-04-22 14:19 | 40.70400 | 19.53629 | 24444 ft | 449 kts | 192° |
| 2026-04-22 14:20 | 40.64200 | 19.53295 | 23398 ft | 442 kts | 192° |
| 2026-04-22 14:20 | 40.61127 | 19.53130 | 22739 ft | 439 kts | 192° |
| 2026-04-22 14:20 | 40.58066 | 19.53133 | 22193 ft | 443 kts | 184° |
| 2026-04-22 14:21 | 40.52082 | 19.55044 | 21327 ft | 447 kts | 167° |
| 2026-04-22 14:21 | 40.49165 | 19.56458 | 20775 ft | 444 kts | 166° |
| 2026-04-22 14:22 | 40.43396 | 19.59295 | 19721 ft | 439 kts | 166° |
| 2026-04-22 14:22 | 40.35056 | 19.63299 | 18123 ft | 432 kts | 166° |
| 2026-04-22 14:23 | 40.32226 | 19.64634 | 17518 ft | 429 kts | 166° |
| 2026-04-22 14:23 | 40.29424 | 19.65952 | 16965 ft | 425 kts | 166° |
| 2026-04-22 14:23 | 40.26655 | 19.67254 | 16392 ft | 421 kts | 166° |
| 2026-04-22 14:23 | 40.23907 | 19.68543 | 15904 ft | 417 kts | 166° |
| 2026-04-22 14:24 | 40.21220 | 19.69806 | 15373 ft | 414 kts | 166° |
| 2026-04-22 14:24 | 40.18516 | 19.71076 | 14864 ft | 410 kts | 166° |
| 2026-04-22 14:24 | 40.15838 | 19.72338 | 14353 ft | 407 kts | 166° |
| 2026-04-22 14:24 | 40.13133 | 19.73201 | 13830 ft | 392 kts | 182° |
| 2026-04-22 14:25 | 40.10461 | 19.73085 | 13366 ft | 379 kts | 192° |
| 2026-04-22 14:25 | 40.07860 | 19.72671 | 12872 ft | 373 kts | 194° |
| 2026-04-22 14:25 | 40.05312 | 19.72201 | 12466 ft | 366 kts | 194° |
| 2026-04-22 14:25 | 40.02811 | 19.71719 | 12106 ft | 359 kts | 194° |
| 2026-04-22 14:26 | 40.00363 | 19.71246 | 11782 ft | 352 kts | 194° |
| 2026-04-22 14:26 | 39.97969 | 19.70781 | 11638 ft | 342 kts | 194° |
| 2026-04-22 14:26 | 39.95648 | 19.70336 | 11564 ft | 333 kts | 194° |
| 2026-04-22 14:26 | 39.93383 | 19.69906 | 11524 ft | 328 kts | 194° |
| 2026-04-22 14:27 | 39.91092 | 19.69461 | 11513 ft | 345 kts | 195° |
| 2026-04-22 14:27 | 39.88684 | 19.68979 | 11532 ft | 353 kts | 195° |
| 2026-04-22 14:27 | 39.86248 | 19.68490 | 11559 ft | 352 kts | 195° |
| 2026-04-22 14:27 | 39.83823 | 19.68004 | 11563 ft | 353 kts | 195° |
| 2026-04-22 14:28 | 39.81384 | 19.67512 | 11408 ft | 356 kts | 194° |
| 2026-04-22 14:28 | 39.78901 | 19.67317 | 11130 ft | 364 kts | 178° |
| 2026-04-22 14:28 | 39.76398 | 19.68140 | 10929 ft | 377 kts | 168° |
| 2026-04-22 14:28 | 39.73889 | 19.69036 | 10697 ft | 379 kts | 172° |
| 2026-04-22 14:29 | 39.71358 | 19.69734 | 10611 ft | 364 kts | 175° |
| 2026-04-22 14:29 | 39.68921 | 19.70226 | 10494 ft | 344 kts | 178° |
| 2026-04-22 14:29 | 39.66609 | 19.70577 | 10364 ft | 325 kts | 180° |
| 2026-04-22 14:29 | 39.64416 | 19.70846 | 10240 ft | 307 kts | 181° |
| 2026-04-22 14:30 | 39.62338 | 19.71073 | 10119 ft | 291 kts | 182° |
| 2026-04-22 14:30 | 39.60348 | 19.71278 | 9858 ft | 282 kts | 182° |
| 2026-04-22 14:30 | 39.58401 | 19.71469 | 9412 ft | 281 kts | 182° |
| 2026-04-22 14:30 | 39.56449 | 19.71660 | 8949 ft | 280 kts | 181° |
| 2026-04-22 14:31 | 39.54529 | 19.71849 | 8491 ft | 279 kts | 181° |
| 2026-04-22 14:31 | 39.52597 | 19.72041 | 8062 ft | 278 kts | 180° |
| 2026-04-22 14:31 | 39.50675 | 19.72233 | 7646 ft | 276 kts | 180° |
| 2026-04-22 14:31 | 39.48759 | 19.72425 | 7230 ft | 277 kts | 179° |
| 2026-04-22 14:32 | 39.46835 | 19.72618 | 6890 ft | 275 kts | 179° |
| 2026-04-22 14:32 | 39.44955 | 19.72807 | 6582 ft | 273 kts | 178° |
| 2026-04-22 14:32 | 39.43063 | 19.73088 | 6197 ft | 275 kts | 166° |
| 2026-04-22 14:32 | 39.41409 | 19.74295 | 5811 ft | 276 kts | 135° |
| 2026-04-22 14:33 | 39.40412 | 19.76395 | 5315 ft | 276 kts | 104° |
| 2026-04-22 14:33 | 39.40242 | 19.78823 | 4894 ft | 271 kts | 81° |
| 2026-04-22 14:33 | 39.40497 | 19.81170 | 4659 ft | 261 kts | 80° |
| 2026-04-22 14:33 | 39.40758 | 19.83474 | 4415 ft | 254 kts | 81° |
| 2026-04-22 14:34 | 39.41001 | 19.85699 | 4201 ft | 246 kts | 81° |
| 2026-04-22 14:34 | 39.41227 | 19.87831 | 4077 ft | 232 kts | 81° |
| 2026-04-22 14:34 | 39.41438 | 19.89857 | 3834 ft | 221 kts | 81° |
| 2026-04-22 14:34 | 39.41633 | 19.91746 | 3667 ft | 209 kts | 80° |
| 2026-04-22 14:35 | 39.41821 | 19.93563 | 3473 ft | 198 kts | 80° |
| 2026-04-22 14:35 | 39.42022 | 19.95277 | 3283 ft | 187 kts | 71° |
| 2026-04-22 14:35 | 39.42784 | 19.96533 | 3179 ft | 191 kts | 19° |
| 2026-04-22 14:35 | 39.44195 | 19.96735 | 3051 ft | 219 kts | 353° |
| 2026-04-22 14:36 | 39.45676 | 19.96430 | 2753 ft | 213 kts | 347° |
| 2026-04-22 14:36 | 39.47059 | 19.96012 | 2472 ft | 195 kts | 343° |
| 2026-04-22 14:36 | 39.48316 | 19.95564 | 2231 ft | 178 kts | 342° |
| 2026-04-22 14:36 | 39.49465 | 19.95138 | 2007 ft | 164 kts | 342° |
| 2026-04-22 14:37 | 39.50522 | 19.94742 | 1859 ft | 153 kts | 342° |
| 2026-04-22 14:37 | 39.51507 | 19.94373 | 1645 ft | 144 kts | 342° |
| 2026-04-22 14:37 | 39.52468 | 19.94012 | 1420 ft | 142 kts | 342° |
| 2026-04-22 14:37 | 39.53403 | 19.93661 | 1246 ft | 139 kts | 342° |
| 2026-04-22 14:38 | 39.54350 | 19.93306 | 1073 ft | 140 kts | 341° |
| 2026-04-22 14:38 | 39.55284 | 19.92957 | 849 ft | 139 kts | 341° |
| 2026-04-22 14:38 | 39.56215 | 19.92605 | 688 ft | 141 kts | 342° |
| 2026-04-22 14:38 | 39.57172 | 19.92237 | 507 ft | 145 kts | 341° |
| 2026-04-22 14:39 | 39.58135 | 19.91863 | 284 ft | 143 kts | 341° |
| 2026-04-22 14:39 | 39.59083 | 19.91520 | 98 ft | 141 kts | 343° |
| 2026-04-22 14:39 | 39.60025 | 19.91267 | 55 ft | 126 kts | 347° |
| 2026-04-22 14:40 | 39.60960 | 19.91016 | 18 ft | 21 kts | 348° |
| 2026-04-22 14:40 | 39.61028 | 19.91021 | 18 ft | 0 kts | 39° |
| 2026-04-22 14:40 | 39.61031 | 19.91025 | 18 ft | 2 kts | 52° |
| 2026-04-22 14:41 | 39.61054 | 19.91073 | 18 ft | 9 kts | 58° |
| 2026-04-22 14:41 | 39.61034 | 19.91129 | 18 ft | 9 kts | 170° |
| 2026-04-22 14:41 | 39.60975 | 19.91144 | 18 ft | 9 kts | 168° |
| 2026-04-22 14:41 | 39.60918 | 19.91160 | 18 ft | 8 kts | 168° |
| 2026-04-22 14:42 | 39.60867 | 19.91186 | 17 ft | 8 kts | 122° |
| 2026-04-22 14:42 | 39.60872 | 19.91258 | 17 ft | 8 kts | 79° |
| 2026-04-22 14:42 | 39.60878 | 19.91297 | 17 ft | 0 kts | 79° |
| 2026-04-22 14:42 | 39.60878 | 19.91299 | 17 ft | 1 kts | 78° |